Alts de San Benito, Puerto Rico
Current Conditions -  °F | °C
As of 9:53 PM on Wednesday 26 Nov 2014 (Local Time) from TJNR Reporting Station
Few Clouds Few Clouds  
Wind Chill: 80°   Ceiling: Unl
Heat Index: 84°   Visibility: 10mi
Dew Point: 72°   Wind: 9mph
Humidity: 76%   Direction: 80°E
Pressure: 30.05"   Gusts: NA
Location:  18.1494°N, 65.8294°W
Report Text: TJNR 270153Z AUTO 08008KT 030V100 10SM FEW027 27/22 A3005 RMK AO2 SLP177 T02670222 $
Loading
Personal Weather Stations






























Interactive Weather Map New forecast layout! Learn more

10-Day Weather Forecast

Advertisements
Track Severe Weather on mobile